Time;durP1;ratioP1;P1;durP2;ratioP2;P2;SDS_P1;SDS_P2;PMS_P1;PMS_P2;Temp;Humidity;BMP_temperature;BMP_pressure;BME280_temperature;BME280_humidity;BME280_pressure;Samples;Min_cycle;Max_cycle;Signal;HPM_P1;HPM_P2
2022/07/29 00:02:18;;;;;;;1.98;1.40;;;;;;;16.39;66.77;101756.56;4995405;28;20065;-72
2022/07/29 00:04:43;;;;;;;3.85;1.63;;;;;;;16.50;66.86;101755.97;4996191;28;20102;-71
2022/07/29 00:07:08;;;;;;;4.10;1.40;;;;;;;16.55;67.04;101745.72;4994835;28;20387;-71
2022/07/29 00:09:34;;;;;;;5.70;1.52;;;;;;;16.63;66.35;101758.56;4996120;28;20073;-72
2022/07/29 00:12:01;;;;;;;5.20;1.40;;;;;;;16.67;66.42;101751.94;4996169;28;20460;-71
2022/07/29 00:14:27;;;;;;;4.38;1.42;;;;;;;16.56;66.71;101749.13;4994289;28;20109;-71
2022/07/29 00:16:52;;;;;;;4.80;1.50;;;;;;;16.52;67.52;101745.34;4995635;28;20037;-72
2022/07/29 00:19:18;;;;;;;4.20;1.60;;;;;;;16.58;66.69;101745.31;4994676;28;20051;-72
2022/07/29 00:21:43;;;;;;;3.70;1.40;;;;;;;16.46;67.41;101750.38;4995887;28;20466;-71
2022/07/29 00:24:08;;;;;;;5.68;1.60;;;;;;;16.38;67.65;101741.94;4995866;28;20066;-71
2022/07/29 00:26:34;;;;;;;4.88;1.60;;;;;;;16.40;67.71;101732.91;4995797;28;20048;-72
2022/07/29 00:29:00;;;;;;;3.83;1.38;;;;;;;16.49;67.31;101730.91;4995906;28;20545;-71
2022/07/29 00:31:26;;;;;;;6.32;1.50;;;;;;;16.37;67.90;101727.28;4994477;28;20022;-71
2022/07/29 00:33:52;;;;;;;2.40;1.27;;;;;;;16.56;67.29;101726.47;4995769;28;20076;-71
2022/07/29 00:36:17;;;;;;;4.65;1.60;;;;;;;16.64;67.30;101713.19;4995714;28;20454;-71
2022/07/29 00:38:45;;;;;;;4.55;1.70;;;;;;;16.38;67.94;101713.25;4994436;28;20023;-71
2022/07/29 00:41:11;;;;;;;34.08;2.13;;;;;;;16.40;67.79;101713.81;4995617;28;20030;-71
2022/07/29 00:43:36;;;;;;;3.53;1.60;;;;;;;16.44;67.89;101713.22;4995465;28;20030;-71
2022/07/29 00:46:01;;;;;;;5.22;1.40;;;;;;;16.11;68.76;101713.28;4994205;28;20025;-71
2022/07/29 00:48:27;;;;;;;4.75;1.45;;;;;;;16.36;68.39;101710.03;4995470;28;20026;-71
2022/07/29 00:50:52;;;;;;;5.22;1.73;;;;;;;16.14;68.80;101715.47;4995384;28;20125;-72
2022/07/29 00:53:19;;;;;;;4.32;1.50;;;;;;;16.14;68.97;101707.66;4995272;28;20034;-71
2022/07/29 00:55:45;;;;;;;5.57;1.50;;;;;;;15.89;69.87;101704.03;4995344;28;20156;-71
2022/07/29 00:58:12;;;;;;;4.18;1.80;;;;;;;16.08;69.08;101707.63;4995269;28;20482;-71
2022/07/29 01:00:40;;;;;;;7.88;1.60;;;;;;;16.21;68.67;101705.81;4993993;28;20022;-71
2022/07/29 01:03:05;;;;;;;7.57;1.65;;;;;;;16.28;68.47;101703.22;4993765;28;20022;-71
2022/07/29 01:05:31;;;;;;;6.55;1.50;;;;;;;16.36;68.23;101697.00;4993834;28;20026;-71
2022/07/29 01:07:57;;;;;;;5.65;1.60;;;;;;;16.20;68.38;101706.03;4994981;28;20488;-71
2022/07/29 01:10:23;;;;;;;4.82;1.67;;;;;;;15.86;69.01;101702.63;4994995;28;20022;-71
2022/07/29 01:12:52;;;;;;;3.53;1.38;;;;;;;15.96;69.52;101697.81;4995144;28;20447;-71
2022/07/29 01:15:17;;;;;;;3.63;1.70;;;;;;;16.07;68.82;101688.59;4994947;28;20023;-71
2022/07/29 01:17:45;;;;;;;4.55;1.70;;;;;;;16.00;69.31;101696.41;4993795;28;20109;-71
2022/07/29 01:20:14;;;;;;;6.43;1.60;;;;;;;16.03;69.03;101690.00;4994735;28;20124;-71
2022/07/29 01:23:05;;;;;;;3.60;1.70;;;;;;;16.09;68.81;101694.41;4994873;28;20363;-71
2022/07/29 01:25:46;;;;;;;3.72;1.70;;;;;;;16.24;68.44;101692.38;4993496;28;20604;-71
2022/07/29 01:28:48;;;;;;;5.30;1.55;;;;;;;16.29;68.08;101693.59;4993375;28;20038;-71
2022/07/29 01:31:20;;;;;;;4.82;1.65;;;;;;;16.32;68.22;101695.81;4994675;28;20026;-71
2022/07/29 01:33:54;;;;;;;2.20;1.45;;;;;;;16.29;67.92;101680.56;4994626;28;20029;-71
2022/07/29 01:36:33;;;;;;;4.07;1.85;;;;;;;16.17;68.68;101683.78;4994523;28;20065;-71
2022/07/29 01:39:26;;;;;;;6.45;1.63;;;;;;;16.10;68.89;101695.19;4993276;28;20037;-71
2022/07/29 01:42:05;;;;;;;;;;;;;;;15.92;69.32;101693.19;4993579;28;20018;-71
2022/07/29 01:44:35;;;;;;;3.35;1.58;;;;;;;16.23;68.60;101695.22;4994391;28;19924;-71
2022/07/29 01:47:12;;;;;;;6.90;1.83;;;;;;;16.24;68.51;101700.22;4992714;28;20117;-71
2022/07/29 01:49:44;;;;;;;4.05;1.70;;;;;;;16.22;68.40;101702.22;4994279;28;20025;-71
2022/07/29 01:52:15;;;;;;;4.40;1.92;;;;;;;16.10;69.01;101701.22;4994260;28;20589;-71
2022/07/29 01:54:51;;;;;;;5.90;1.67;;;;;;;16.07;69.31;101685.97;4994248;28;20030;-72
2022/07/29 01:57:20;;;;;;;5.13;1.55;;;;;;;16.11;68.88;101688.97;4994225;28;20041;-72
2022/07/29 01:59:48;;;;;;;4.15;1.65;;;;;;;16.06;68.87;101684.38;4994126;28;20054;-72
2022/07/29 02:02:16;;;;;;;5.65;1.85;;;;;;;16.07;68.78;101682.56;4992801;28;20030;-71
2022/07/29 02:04:44;;;;;;;4.00;1.70;;;;;;;15.90;68.97;101685.56;4992828;28;20579;-72
2022/07/29 02:07:15;;;;;;;3.35;1.70;;;;;;;15.87;69.63;101680.75;4993994;28;20485;-71
2022/07/29 02:09:42;;;;;;;4.18;1.75;;;;;;;15.97;68.94;101682.97;4993974;28;20034;-72
2022/07/29 02:12:09;;;;;;;4.20;1.80;;;;;;;15.90;69.57;101688.19;4992972;28;20026;-71
2022/07/29 02:14:39;;;;;;;7.50;1.80;;;;;;;15.89;69.70;101683.97;4992701;28;20037;-72
2022/07/29 02:17:05;;;;;;;4.00;1.95;;;;;;;15.78;69.50;101687.97;4993969;28;20031;-72
2022/07/29 02:19:32;;;;;;;4.32;1.90;;;;;;;16.04;69.07;101681.16;4992440;28;20104;-72
2022/07/29 02:21:59;;;;;;;4.43;1.88;;;;;;;16.14;68.59;101686.78;4993888;28;20026;-72
2022/07/29 02:24:26;;;;;;;5.65;1.88;;;;;;;15.99;68.82;101686.16;4993899;28;20061;-72
2022/07/29 02:26:53;;;;;;;5.97;1.65;;;;;;;15.91;68.92;101686.38;4992480;28;20031;-72
2022/07/29 02:29:22;;;;;;;4.15;1.70;;;;;;;15.94;68.97;101683.34;4993771;28;20026;-72
2022/07/29 02:31:50;;;;;;;3.80;1.85;;;;;;;15.93;69.17;101685.16;4993806;28;20027;-72
2022/07/29 02:34:17;;;;;;;5.03;1.98;;;;;;;15.98;68.92;101692.41;4993768;28;20474;-72
2022/07/29 02:36:44;;;;;;;6.32;2.10;;;;;;;16.11;68.30;101691.59;4992547;28;20417;-72
2022/07/29 02:39:11;;;;;;;4.50;1.80;;;;;;;16.05;68.36;101676.75;4994792;28;20026;-72
2022/07/29 02:41:43;;;;;;;4.03;1.92;;;;;;;16.09;68.05;101678.75;4997783;28;20030;-71
2022/07/29 02:44:17;;;;;;;4.53;1.88;;;;;;;15.89;68.57;101677.97;4997741;28;20030;-72
2022/07/29 02:46:49;;;;;;;5.38;2.00;;;;;;;15.76;69.17;101676.94;4996495;28;20105;-72
2022/07/29 02:49:19;;;;;;;4.10;1.80;;;;;;;15.75;69.42;101680.56;4996338;28;20150;-72
2022/07/29 02:51:57;;;;;;;4.88;1.88;;;;;;;15.99;68.82;101671.31;4997837;28;20045;-72
2022/07/29 02:54:30;;;;;;;3.38;1.80;;;;;;;15.94;69.00;101676.38;4996098;28;20474;-71
2022/07/29 02:57:00;;;;;;;4.85;1.85;;;;;;;15.91;68.82;101676.78;4996240;28;20028;-72
2022/07/29 02:59:29;;;;;;;6.85;1.90;;;;;;;15.92;68.63;101665.31;4997428;28;20034;-71
2022/07/29 03:01:57;;;;;;;5.40;2.05;;;;;;;15.95;68.75;101672.75;4997381;28;20023;-71
2022/07/29 03:04:25;;;;;;;3.17;1.80;;;;;;;16.15;67.98;101674.56;4997162;28;20053;-72
2022/07/29 03:06:52;;;;;;;6.40;1.88;;;;;;;16.17;67.65;101675.13;4997253;28;20114;-72
2022/07/29 03:09:18;;;;;;;2.45;1.70;;;;;;;16.12;67.94;101672.34;4996001;28;20437;-71
2022/07/29 03:11:44;;;;;;;4.93;1.77;;;;;;;15.99;67.80;101675.75;4997238;28;20030;-72
2022/07/29 03:14:10;;;;;;;4.68;1.90;;;;;;;16.02;67.99;101655.31;4995943;28;20029;-72
2022/07/29 03:16:36;;;;;;;6.85;1.95;;;;;;;16.07;67.94;101661.72;4997026;28;20033;-72
2022/07/29 03:19:03;;;;;;;3.00;1.70;;;;;;;15.91;68.36;101661.13;4997045;28;20030;-72
2022/07/29 03:21:29;;;;;;;3.13;1.70;;;;;;;15.93;68.39;101655.69;4997050;28;20023;-72
2022/07/29 03:23:54;;;;;;;5.60;1.80;;;;;;;15.91;68.31;101660.31;4995847;28;20026;-72
2022/07/29 03:26:21;;;;;;;3.08;1.80;;;;;;;16.01;67.85;101660.72;4997050;28;20042;-72
2022/07/29 03:28:46;;;;;;;3.58;1.90;;;;;;;15.88;68.25;101655.50;4995654;28;20389;-72
2022/07/29 03:31:11;;;;;;;4.25;1.80;;;;;;;15.97;68.05;101659.53;4995571;28;20494;-71
2022/07/29 03:33:37;;;;;;;5.13;1.83;;;;;;;15.96;68.13;101655.28;4996811;28;20022;-72
2022/07/29 03:36:02;;;;;;;3.85;1.80;;;;;;;16.08;67.46;101658.88;4996818;28;20037;-72
2022/07/29 03:38:30;;;;;;;6.07;1.77;;;;;;;16.07;67.71;101657.28;4996648;28;20129;-72
2022/07/29 03:41:01;;;;;;;3.58;1.85;;;;;;;15.90;68.06;101654.28;4995480;28;20497;-72
2022/07/29 03:43:31;;;;;;;6.85;2.00;;;;;;;15.96;68.17;101650.88;4996723;28;20481;-71
2022/07/29 03:45:58;;;;;;;6.10;2.10;;;;;;;15.92;67.69;101656.72;4996565;28;20023;-72
2022/07/29 03:48:25;;;;;;;4.22;1.98;;;;;;;15.88;68.33;101650.28;4996551;28;20061;-72
2022/07/29 03:50:51;;;;;;;5.85;1.90;;;;;;;15.95;67.86;101649.28;4995100;28;20088;-72
2022/07/29 03:53:17;;;;;;;3.95;2.03;;;;;;;15.92;68.23;101644.47;4996400;28;20033;-72
2022/07/29 03:55:52;;;;;;;4.90;2.05;;;;;;;15.87;67.97;101651.28;4995208;28;20033;-73
2022/07/29 03:58:18;;;;;;;4.40;1.77;;;;;;;16.04;67.54;101655.09;4996391;28;20034;-71
2022/07/29 04:00:44;;;;;;;7.20;2.10;;;;;;;16.01;67.41;101651.09;4995060;28;20478;-71
2022/07/29 04:03:10;;;;;;;5.10;1.92;;;;;;;15.96;67.83;101650.88;4996303;28;20026;-71
2022/07/29 04:05:35;;;;;;;5.90;2.00;;;;;;;15.87;67.93;101643.47;4996246;28;20397;-72
2022/07/29 04:08:01;;;;;;;7.75;2.10;;;;;;;15.81;67.73;101647.69;4996337;28;20026;-71
2022/07/29 04:10:26;;;;;;;6.22;2.10;;;;;;;15.73;68.28;101648.66;4996152;28;20462;-72
2022/07/29 04:12:52;;;;;;;6.35;1.95;;;;;;;15.90;68.00;101645.66;4994806;28;20026;-72
2022/07/29 04:15:18;;;;;;;6.65;2.00;;;;;;;15.96;67.41;101650.88;4996029;28;20030;-72
2022/07/29 04:17:43;;;;;;;5.13;1.92;;;;;;;15.99;68.09;101649.69;4994862;28;20026;-72
2022/07/29 04:20:09;;;;;;;5.82;1.83;;;;;;;16.00;67.57;101649.50;4995860;28;20080;-71
2022/07/29 04:22:34;;;;;;;3.88;1.85;;;;;;;16.05;67.37;101643.66;4996037;28;20381;-71
2022/07/29 04:24:59;;;;;;;4.40;1.90;;;;;;;15.98;67.51;101641.06;4995795;28;20109;-72
2022/07/29 04:27:25;;;;;;;5.13;1.80;;;;;;;15.88;67.66;101647.66;4995732;28;20030;-72
2022/07/29 04:29:50;;;;;;;3.60;1.90;;;;;;;15.79;68.43;101634.88;4995767;28;20477;-72
2022/07/29 04:32:15;;;;;;;4.95;2.20;;;;;;;15.96;67.75;101648.28;4995644;28;20537;-72
2022/07/29 04:34:41;;;;;;;2.65;1.77;;;;;;;15.96;67.32;101639.66;4994399;28;20033;-72
2022/07/29 04:37:06;;;;;;;4.10;1.98;;;;;;;15.87;67.72;101638.25;4994504;28;20022;-72
2022/07/29 04:39:31;;;;;;;3.00;1.83;;;;;;;16.05;67.33;101645.47;4995723;28;20080;-72
2022/07/29 04:41:56;;;;;;;5.40;1.95;;;;;;;16.18;66.85;101646.25;4995539;28;20495;-72
2022/07/29 04:44:22;;;;;;;5.00;1.88;;;;;;;16.18;67.02;101637.63;4994174;28;20027;-71
2022/07/29 04:46:47;;;;;;;5.57;2.00;;;;;;;15.99;67.42;101655.69;4995404;28;20035;-72
2022/07/29 04:49:12;;;;;;;4.72;2.08;;;;;;;16.12;67.20;101657.50;4994290;28;20026;-71
2022/07/29 04:51:38;;;;;;;4.80;1.90;;;;;;;16.13;67.50;101653.09;4995512;28;20149;-71
2022/07/29 04:54:03;;;;;;;3.95;1.83;;;;;;;15.91;68.11;101652.47;4995175;28;20470;-71
2022/07/29 04:56:28;;;;;;;5.03;2.30;;;;;;;15.94;68.16;101655.50;4994139;28;20034;-72
2022/07/29 04:58:54;;;;;;;6.60;2.47;;;;;;;16.05;68.12;101648.88;4993889;28;20460;-71
2022/07/29 05:01:19;;;;;;;5.80;2.10;;;;;;;16.09;67.35;101654.50;4994742;28;20037;-72
2022/07/29 05:03:45;;;;;;;6.72;2.03;;;;;;;16.10;67.59;101651.69;4995226;28;20474;-72
2022/07/29 05:06:11;;;;;;;6.05;2.30;;;;;;;16.22;67.43;101649.25;4995257;28;20042;-71
2022/07/29 05:08:36;;;;;;;5.32;1.83;;;;;;;16.20;67.05;101649.47;4993878;28;20022;-72
2022/07/29 05:11:02;;;;;;;5.45;2.17;;;;;;;16.26;67.41;101644.47;4995129;28;20058;-72
2022/07/29 05:13:27;;;;;;;3.30;1.77;;;;;;;16.36;67.13;101643.00;4995119;28;20347;-72
2022/07/29 05:15:53;;;;;;;2.85;1.80;;;;;;;16.37;66.85;101646.41;4994919;28;20026;-71
2022/07/29 05:18:18;;;;;;;4.68;2.10;;;;;;;16.48;66.69;101651.00;4993716;28;20026;-72
2022/07/29 05:20:43;;;;;;;6.75;1.90;;;;;;;16.50;66.20;101650.81;4993598;28;20046;-72
2022/07/29 05:23:08;;;;;;;5.53;1.90;;;;;;;16.43;66.86;101654.25;4994789;28;20030;-71
2022/07/29 05:25:34;;;;;;;6.93;2.17;;;;;;;16.35;66.65;101656.28;4994955;28;20026;-71
2022/07/29 05:27:59;;;;;;;3.35;1.80;;;;;;;16.32;67.44;101647.03;4994644;28;20033;-71
2022/07/29 05:30:24;;;;;;;4.50;2.10;;;;;;;16.55;66.87;101653.63;4994793;28;20034;-71
2022/07/29 05:32:50;;;;;;;3.20;1.80;;;;;;;16.49;66.74;101652.63;4993372;28;20029;-71
2022/07/29 05:35:16;;;;;;;7.90;1.80;;;;;;;16.59;66.91;101652.97;4994533;28;20026;-71
2022/07/29 05:37:41;;;;;;;4.20;1.95;;;;;;;16.63;66.55;101651.59;4994529;28;20022;-71
2022/07/29 05:40:08;;;;;;;7.03;1.80;;;;;;;16.67;66.60;101654.56;4993202;28;20038;-71
2022/07/29 05:42:33;;;;;;;5.82;2.22;;;;;;;16.48;67.09;101653.63;4994430;28;20098;-71
2022/07/29 05:44:59;;;;;;;5.85;1.90;;;;;;;16.82;66.25;101659.56;4993200;28;20503;-71
2022/07/29 05:47:24;;;;;;;3.58;1.95;;;;;;;16.59;66.36;101647.75;4994296;28;20026;-70
2022/07/29 05:49:50;;;;;;;5.72;2.00;;;;;;;16.82;65.67;101651.75;4993039;28;20081;-71
2022/07/29 05:52:16;;;;;;;8.05;2.00;;;;;;;16.78;65.87;101656.56;4994513;28;20022;-71
2022/07/29 05:54:41;;;;;;;5.47;2.10;;;;;;;16.90;65.52;101652.31;4992920;28;20114;-71
2022/07/29 05:57:07;;;;;;;4.85;1.90;;;;;;;17.09;65.44;101655.03;4993575;28;20022;-71
2022/07/29 05:59:36;;;;;;;8.93;1.92;;;;;;;17.40;64.36;101661.28;4994167;28;20041;-71
2022/07/29 06:02:02;;;;;;;11.98;2.65;;;;;;;18.17;62.01;101665.34;4993141;28;20022;-71
2022/07/29 06:04:27;;;;;;;3.75;1.90;;;;;;;17.68;62.89;101666.13;4992901;28;20029;-71
2022/07/29 06:06:53;;;;;;;3.80;1.88;;;;;;;17.66;63.34;101665.53;4994020;28;20030;-71
2022/07/29 06:09:18;;;;;;;5.07;2.22;;;;;;;17.32;64.10;101671.00;4994060;28;20026;-71
2022/07/29 06:11:44;;;;;;;3.78;2.00;;;;;;;17.25;64.29;101677.25;4994091;28;20355;-71
2022/07/29 06:14:09;;;;;;;10.63;1.83;;;;;;;17.05;64.92;101670.31;4993193;28;20034;-71
2022/07/29 06:16:34;;;;;;;4.75;2.05;;;;;;;17.30;64.76;101665.16;4992925;28;20015;-71
2022/07/29 06:18:59;;;;;;;7.82;2.20;;;;;;;17.29;64.99;101662.75;4994129;28;20030;-71
2022/07/29 06:21:25;;;;;;;3.95;2.03;;;;;;;18.26;62.33;101665.88;4993899;28;20030;-71
2022/07/29 06:23:50;;;;;;;7.05;2.10;;;;;;;18.66;60.29;101657.59;4992499;28;20533;-71
2022/07/29 06:26:16;;;;;;;5.00;2.25;;;;;;;18.08;62.10;101658.00;4992589;28;20125;-71
2022/07/29 06:28:41;;;;;;;4.13;1.88;;;;;;;18.12;62.13;101654.72;4993803;28;20022;-71
2022/07/29 06:31:07;;;;;;;4.30;2.10;;;;;;;20.87;54.86;101661.78;4993884;28;20146;-72
2022/07/29 06:33:33;;;;;;;4.43;1.80;;;;;;;19.09;57.45;101651.44;4992481;28;20030;-71
2022/07/29 06:35:58;;;;;;;6.03;2.00;;;;;;;19.95;56.91;101667.72;4992558;28;20030;-71
2022/07/29 06:38:23;;;;;;;3.53;1.88;;;;;;;19.75;56.72;101665.44;4992215;28;20117;-70
2022/07/29 06:41:09;;;;;;;6.43;2.10;;;;;;;19.60;57.44;101664.00;4992996;28;20350;-71
2022/07/29 06:43:37;;;;;;;4.55;2.00;;;;;;;20.28;55.90;101669.75;4992489;28;20033;-72
2022/07/29 06:46:08;;;;;;;3.85;2.00;;;;;;;20.43;54.54;101677.19;4993577;28;20069;-71
2022/07/29 06:48:35;;;;;;;4.30;2.00;;;;;;;19.73;56.51;101683.22;4993595;28;20088;-71
2022/07/29 06:51:01;;;;;;;3.90;1.92;;;;;;;20.36;55.05;101689.63;4993671;28;20022;-71
2022/07/29 06:53:27;;;;;;;6.65;2.10;;;;;;;22.52;49.31;101693.88;4992529;28;20470;-71
2022/07/29 06:55:52;;;;;;;5.75;2.38;;;;;;;24.35;45.05;101695.00;4994063;28;20525;-72
2022/07/29 06:58:20;;;;;;;6.20;2.00;;;;;;;24.51;43.31;101702.75;4993950;28;20376;-73
2022/07/29 07:00:47;;;;;;;4.88;2.08;;;;;;;21.41;50.54;101704.34;4993012;28;20033;-72
2022/07/29 07:03:14;;;;;;;10.55;2.30;;;;;;;21.30;52.31;101702.53;4992793;28;20393;-72
2022/07/29 07:05:39;;;;;;;5.03;2.17;;;;;;;20.67;53.11;101705.00;4994533;28;20022;-71
2022/07/29 07:08:05;;;;;;;6.55;2.10;;;;;;;20.99;53.39;101711.66;4993612;28;20049;-72
2022/07/29 07:10:30;;;;;;;4.68;2.25;;;;;;;21.57;51.28;101710.63;4993048;28;20482;-71
2022/07/29 07:12:56;;;;;;;6.07;2.00;;;;;;;21.99;50.44;101710.25;4994303;28;20494;-72
2022/07/29 07:15:21;;;;;;;11.13;2.30;;;;;;;22.35;49.34;101708.94;4998177;28;20090;-76
2022/07/29 07:17:48;;;;;;;7.22;2.42;;;;;;;24.91;43.90;101708.41;5001302;28;20339;-73
2022/07/29 07:20:14;;;;;;;3.42;2.15;;;;;;;22.78;47.74;101709.22;5001522;28;20042;-74
2022/07/29 07:22:39;;;;;;;8.93;2.13;;;;;;;23.90;45.35;101709.50;5003052;28;20022;-74
2022/07/29 07:25:05;;;;;;;5.30;2.05;;;;;;;25.81;41.99;101710.66;5004648;28;20037;-76
2022/07/29 07:27:30;;;;;;;4.85;2.08;;;;;;;21.92;50.01;101707.75;5006192;28;20458;-76
2022/07/29 07:29:55;;;;;;;6.22;2.13;;;;;;;21.07;52.02;101704.22;5006621;28;20113;-74
2022/07/29 07:32:21;;;;;;;6.85;2.30;;;;;;;20.16;55.36;101710.97;5006227;28;20478;-73
2022/07/29 07:34:47;;;;;;;9.65;2.30;;;;;;;19.75;56.92;101694.28;5004124;28;20076;-76
2022/07/29 07:37:12;;;;;;;6.47;2.22;;;;;;;20.29;56.20;101693.16;4999628;28;20098;-72
2022/07/29 07:39:37;;;;;;;6.60;2.40;;;;;;;20.00;55.99;101696.72;4999374;28;20034;-72
2022/07/29 07:42:02;;;;;;;9.57;2.28;;;;;;;19.91;57.04;101703.28;5000186;28;20534;-71
2022/07/29 07:44:28;;;;;;;7.03;2.45;;;;;;;20.52;54.83;101702.06;5000120;28;20022;-71
2022/07/29 07:46:53;;;;;;;5.25;2.30;;;;;;;21.04;53.72;101699.44;4998249;28;20105;-72
2022/07/29 07:49:18;;;;;;;3.22;2.30;;;;;;;21.27;53.41;101695.91;4998218;28;20026;-71
2022/07/29 07:51:44;;;;;;;5.45;2.50;;;;;;;21.12;53.10;101690.38;4997334;28;20034;-72
2022/07/29 07:54:09;;;;;;;5.97;1.95;;;;;;;21.90;51.81;101683.53;4998287;28;20026;-72
2022/07/29 07:56:34;;;;;;;5.32;2.20;;;;;;;21.73;51.92;101680.13;4996207;28;20022;-72
2022/07/29 07:59:00;;;;;;;6.47;2.45;;;;;;;21.97;51.81;101681.53;4997806;28;20433;-73
2022/07/29 08:01:25;;;;;;;6.28;2.55;;;;;;;20.84;53.43;101693.78;4996201;28;20027;-72
2022/07/29 08:03:50;;;;;;;6.32;2.38;;;;;;;21.78;52.22;101688.91;4997254;28;20026;-71
2022/07/29 08:06:16;;;;;;;6.00;2.67;;;;;;;21.72;51.87;101681.13;4995737;28;20045;-72
2022/07/29 08:08:41;;;;;;;12.25;2.70;;;;;;;21.52;51.77;101677.19;4996630;28;20104;-72
2022/07/29 08:11:07;;;;;;;5.78;2.22;;;;;;;21.37;52.84;101677.69;4996770;28;20026;-72
2022/07/29 08:13:32;;;;;;;6.28;2.60;;;;;;;20.70;55.21;101682.75;4996246;28;20474;-72
2022/07/29 08:16:10;;;;;;;9.98;2.60;;;;;;;21.55;51.80;101681.97;4996314;28;20027;-72
2022/07/29 08:18:35;;;;;;;5.30;2.50;;;;;;;21.05;53.35;101685.25;4996194;28;20018;-72
2022/07/29 08:21:01;;;;;;;9.23;2.40;;;;;;;21.69;52.32;101677.16;4996146;28;20073;-72
2022/07/29 08:24:42;;;;;;;5.03;2.40;;;;;;;22.15;51.13;101685.72;4996213;28;20018;-72
2022/07/29 08:26:15;;;;;;;6.25;2.13;;;;;;;21.97;51.71;101694.69;4995376;28;20066;-72
2022/07/29 08:28:46;;;;;;;5.82;2.20;;;;;;;22.45;50.08;101692.50;4996066;28;20128;-72
2022/07/29 08:31:12;;;;;;;6.97;2.10;;;;;;;21.70;51.05;101694.56;4996009;28;20149;-72
2022/07/29 08:33:38;;;;;;;5.13;2.70;;;;;;;21.93;50.79;101690.16;4995786;28;20034;-71
2022/07/29 08:36:05;;;;;;;6.97;2.30;;;;;;;22.33;51.09;101689.16;4995251;28;20040;-72
2022/07/29 08:38:30;;;;;;;7.57;2.13;;;;;;;22.28;50.60;101687.25;4994721;28;20028;-71
2022/07/29 08:40:56;;;;;;;6.32;2.15;;;;;;;23.15;48.83;101683.00;4994439;28;20105;-72
2022/07/29 08:43:21;;;;;;;4.13;2.03;;;;;;;24.03;46.50;101691.38;4994312;28;20026;-72
2022/07/29 08:45:49;;;;;;;6.25;1.92;;;;;;;24.19;45.29;101688.81;4995602;28;20026;-72
2022/07/29 08:48:18;;;;;;;9.13;2.00;;;;;;;24.19;45.27;101688.81;4995701;28;20081;-72
2022/07/29 08:50:44;;;;;;;8.40;2.13;;;;;;;24.46;44.65;101697.44;4995387;28;20026;-71
2022/07/29 08:53:11;;;;;;;6.47;2.25;;;;;;;24.07;44.42;101694.31;4995630;28;20097;-71
2022/07/29 08:55:42;;;;;;;6.78;2.22;;;;;;;23.06;46.47;101700.31;4995343;28;20037;-72
2022/07/29 08:58:08;;;;;;;10.02;2.28;;;;;;;24.52;43.88;101701.69;4994194;28;20022;-72
2022/07/29 09:00:36;;;;;;;3.95;2.03;;;;;;;25.33;43.31;101695.03;4995325;28;20033;-72
2022/07/29 09:03:04;;;;;;;4.85;2.10;;;;;;;25.57;42.29;101697.16;4995415;28;20096;-73
2022/07/29 09:05:30;;;;;;;7.47;2.20;;;;;;;25.08;42.65;101706.34;4993889;28;20026;-71
2022/07/29 09:07:55;;;;;;;5.00;2.00;;;;;;;25.27;43.24;101700.59;4995047;28;20505;-72
2022/07/29 09:10:21;;;;;;;7.60;2.20;;;;;;;25.18;42.89;101700.31;4993720;28;20034;-72
2022/07/29 09:12:47;;;;;;;5.43;1.90;;;;;;;25.30;43.24;101697.44;4993842;28;20026;-72
2022/07/29 09:15:12;;;;;;;8.05;2.20;;;;;;;24.97;42.70;101697.63;4994996;28;20482;-71
2022/07/29 09:17:41;;;;;;;5.85;2.15;;;;;;;25.12;42.80;101702.13;4993683;28;20034;-72
2022/07/29 09:20:16;;;;;;;13.50;2.25;;;;;;;25.75;41.34;101688.69;4994747;28;20058;-71
2022/07/29 09:22:42;;;;;;;26.00;2.45;;;;;;;25.94;41.77;101690.78;4993365;28;20053;-72
2022/07/29 09:25:08;;;;;;;6.75;2.10;;;;;;;25.39;41.52;101691.34;4993185;28;20544;-71
2022/07/29 09:27:34;;;;;;;8.55;2.20;;;;;;;25.40;41.05;101692.91;4994150;28;20160;-71
2022/07/29 09:30:01;;;;;;;7.70;2.30;;;;;;;25.34;41.15;101687.91;4994714;28;20101;-71
2022/07/29 09:32:27;;;;;;;8.60;2.45;;;;;;;26.04;39.02;101670.38;4994821;28;20116;-72
2022/07/29 09:35:22;;;;;;;5.43;2.00;;;;;;;26.20;40.04;101675.63;4993243;28;20310;-72
2022/07/29 09:37:48;;;;;;;6.55;2.45;;;;;;;25.77;40.58;101668.00;4993324;28;20014;-72
2022/07/29 09:40:32;;;;;;;5.18;2.17;;;;;;;26.52;39.10;101668.09;4994558;28;20390;-72
2022/07/29 09:42:58;;;;;;;6.82;2.53;;;;;;;25.92;40.20;101672.50;4993382;28;20076;-72
2022/07/29 09:45:30;;;;;;;5.20;2.28;;;;;;;25.94;40.98;101666.97;4994612;28;20026;-72
2022/07/29 09:47:58;;;;;;;;;;;;;;;26.58;39.99;101662.78;4993491;28;20026;-72
2022/07/29 09:50:41;;;;;;;8.93;2.10;;;;;;;26.00;39.84;101668.53;4994429;28;19910;-73
2022/07/29 09:53:09;;;;;;;8.90;2.10;;;;;;;25.85;40.34;101664.06;4993059;28;20022;-73
2022/07/29 09:55:47;;;;;;;4.10;2.13;;;;;;;25.36;40.98;101676.00;4994269;28;20026;-72
2022/07/29 09:58:17;;;;;;;7.15;2.03;;;;;;;25.14;41.70;101678.88;4994297;28;20106;-73
2022/07/29 10:00:45;;;;;;;4.30;2.22;;;;;;;24.53;42.92;101676.84;4993603;28;20025;-72
2022/07/29 10:03:11;;;;;;;6.97;2.10;;;;;;;25.66;41.92;101677.03;4994234;28;20389;-72
2022/07/29 10:05:37;;;;;;;5.72;2.20;;;;;;;26.35;39.75;101678.22;4994496;28;20037;-73
2022/07/29 10:08:03;;;;;;;6.25;2.13;;;;;;;26.46;40.07;101679.75;4992936;28;20026;-73
2022/07/29 10:10:30;;;;;;;7.95;2.60;;;;;;;26.41;39.61;101682.41;4992907;28;20089;-73
2022/07/29 10:12:58;;;;;;;5.18;2.20;;;;;;;26.61;40.24;101678.13;4994301;28;20030;-74
2022/07/29 10:15:26;;;;;;;7.40;2.05;;;;;;;27.15;38.60;101666.66;4996796;28;20029;-73
2022/07/29 10:17:54;;;;;;;4.65;2.20;;;;;;;26.85;38.92;101681.72;4993927;28;20029;-73
2022/07/29 10:20:21;;;;;;;5.20;2.13;;;;;;;27.44;38.85;101675.44;4994842;28;20057;-72
2022/07/29 10:22:47;;;;;;;9.10;1.90;;;;;;;27.26;38.69;101672.72;4993512;28;20085;-72
2022/07/29 10:25:14;;;;;;;13.93;2.00;;;;;;;27.14;38.21;101667.72;4993114;28;20022;-73
2022/07/29 10:27:39;;;;;;;9.70;1.92;;;;;;;27.72;37.65;101667.00;4994874;28;20379;-73
2022/07/29 10:30:05;;;;;;;8.30;1.90;;;;;;;28.39;37.74;101661.72;4993355;28;20029;-73
2022/07/29 10:32:58;;;;;;;7.93;2.10;;;;;;;28.13;37.57;101672.66;4994978;28;20034;-72
2022/07/29 10:35:45;;;;;;;5.10;1.90;;;;;;;27.72;37.11;101667.78;4993704;28;20114;-72
2022/07/29 10:38:43;;;;;;;7.32;2.10;;;;;;;28.52;37.60;101667.16;4994363;28;20030;-73
2022/07/29 10:41:26;;;;;;;7.55;2.30;;;;;;;28.00;37.67;101660.88;4994708;28;20488;-74
2022/07/29 10:43:59;;;;;;;4.38;2.08;;;;;;;28.39;36.93;101662.50;4994725;28;20489;-74
2022/07/29 10:46:26;;;;;;;7.75;2.10;;;;;;;28.37;36.90;101656.72;4977775;28;20031;-74
2022/07/29 10:49:11;;;;;;;4.95;2.00;;;;;;;28.05;37.11;101657.34;4993000;28;20027;-74
2022/07/29 10:52:11;;;;;;;3.72;2.20;;;;;;;27.84;36.95;101662.09;4993205;28;20031;-74
2022/07/29 10:54:39;;;;;;;5.05;1.98;;;;;;;28.84;36.86;101678.16;4992895;28;20097;-72
2022/07/29 10:57:15;;;;;;;4.78;1.92;;;;;;;28.67;37.15;101668.03;4992936;28;20023;-74
2022/07/29 10:59:42;;;;;;;9.88;2.25;;;;;;;28.69;35.99;101669.31;4995611;28;20387;-74
2022/07/29 11:02:32;;;;;;;7.25;2.25;;;;;;;27.80;37.57;101666.41;4997192;28;20479;-72
2022/07/29 11:04:57;;;;;;;7.22;2.30;;;;;;;27.49;39.38;101671.97;4996784;28;20113;-72
2022/07/29 11:07:23;;;;;;;10.47;1.90;;;;;;;28.04;37.35;101669.84;4997860;28;20098;-73
2022/07/29 11:10:12;;;;;;;5.82;2.10;;;;;;;28.31;36.68;101671.94;4997830;28;20446;-74
2022/07/29 11:12:38;;;;;;;6.25;2.10;;;;;;;27.63;37.73;101667.59;4996598;28;20125;-72
2022/07/29 11:15:18;;;;;;;11.50;2.30;;;;;;;27.84;37.52;101668.19;4996100;28;20065;-73
2022/07/29 11:18:00;;;;;;;6.03;1.90;;;;;;;28.22;36.96;101662.19;4998372;28;20278;-75
2022/07/29 11:20:46;;;;;;;8.13;2.30;;;;;;;27.94;37.29;101662.00;4996988;28;20132;-74
2022/07/29 11:23:35;;;;;;;7.32;2.00;;;;;;;27.95;37.49;101665.44;4996194;28;20022;-74
2022/07/29 11:26:13;;;;;;;14.48;2.10;;;;;;;28.26;37.20;101664.00;4995905;28;20035;-73
2022/07/29 11:28:51;;;;;;;13.90;2.65;;;;;;;28.47;35.97;101663.78;4997021;28;20089;-73
2022/07/29 11:31:35;;;;;;;6.55;2.35;;;;;;;28.17;36.72;101668.38;4997012;28;20026;-73